sensor_id;sensor_type;location;lat;lon;timestamp;P1;durP1;ratioP1;P2;durP2;ratioP2
31238;SDS011;17871;31.584;74.450;2024-01-30T00:01:11;449.08;;;197.73;;
31238;SDS011;17871;31.584;74.450;2024-01-30T00:03:40;433.55;;;198.68;;
31238;SDS011;17871;31.584;74.450;2024-01-30T00:06:10;450.10;;;200.43;;
31238;SDS011;17871;31.584;74.450;2024-01-30T00:08:40;432.75;;;198.60;;
31238;SDS011;17871;31.584;74.450;2024-01-30T00:11:09;458.67;;;213.27;;
31238;SDS011;17871;31.584;74.450;2024-01-30T00:13:38;459.27;;;220.85;;
31238;SDS011;17871;31.584;74.450;2024-01-30T00:16:07;450.50;;;216.13;;
31238;SDS011;17871;31.584;74.450;2024-01-30T00:18:37;456.90;;;215.32;;
31238;SDS011;17871;31.584;74.450;2024-01-30T00:21:08;464.48;;;208.45;;
31238;SDS011;17871;31.584;74.450;2024-01-30T00:23:37;447.17;;;207.13;;
31238;SDS011;17871;31.584;74.450;2024-01-30T00:26:07;464.55;;;210.65;;
31238;SDS011;17871;31.584;74.450;2024-01-30T00:28:36;441.52;;;207.07;;
31238;SDS011;17871;31.584;74.450;2024-01-30T00:31:06;438.77;;;208.38;;
31238;SDS011;17871;31.584;74.450;2024-01-30T00:33:35;430.58;;;197.23;;
31238;SDS011;17871;31.584;74.450;2024-01-30T00:36:05;448.20;;;204.15;;
31238;SDS011;17871;31.584;74.450;2024-01-30T00:38:35;436.75;;;206.32;;
31238;SDS011;17871;31.584;74.450;2024-01-30T00:41:04;428.70;;;198.35;;
31238;SDS011;17871;31.584;74.450;2024-01-30T00:43:34;430.67;;;198.32;;
31238;SDS011;17871;31.584;74.450;2024-01-30T00:46:03;427.92;;;196.55;;
31238;SDS011;17871;31.584;74.450;2024-01-30T00:48:32;431.27;;;188.63;;
31238;SDS011;17871;31.584;74.450;2024-01-30T00:51:01;401.48;;;183.95;;
31238;SDS011;17871;31.584;74.450;2024-01-30T00:53:31;403.67;;;179.60;;
31238;SDS011;17871;31.584;74.450;2024-01-30T00:56:00;411.30;;;178.68;;
31238;SDS011;17871;31.584;74.450;2024-01-30T00:58:29;393.90;;;175.73;;
31238;SDS011;17871;31.584;74.450;2024-01-30T01:00:59;393.92;;;177.93;;
31238;SDS011;17871;31.584;74.450;2024-01-30T01:03:29;395.10;;;178.85;;
31238;SDS011;17871;31.584;74.450;2024-01-30T01:05:58;404.15;;;178.60;;
31238;SDS011;17871;31.584;74.450;2024-01-30T01:08:27;412.73;;;178.20;;
31238;SDS011;17871;31.584;74.450;2024-01-30T01:10:57;393.42;;;170.98;;
31238;SDS011;17871;31.584;74.450;2024-01-30T01:13:26;375.33;;;171.88;;
31238;SDS011;17871;31.584;74.450;2024-01-30T01:15:56;373.33;;;165.80;;
31238;SDS011;17871;31.584;74.450;2024-01-30T01:18:25;374.65;;;174.65;;
31238;SDS011;17871;31.584;74.450;2024-01-30T01:20:55;397.05;;;175.07;;
31238;SDS011;17871;31.584;74.450;2024-01-30T01:23:25;383.02;;;172.43;;
31238;SDS011;17871;31.584;74.450;2024-01-30T01:25:54;415.92;;;188.80;;
31238;SDS011;17871;31.584;74.450;2024-01-30T01:28:27;411.42;;;187.15;;
31238;SDS011;17871;31.584;74.450;2024-01-30T01:30:57;436.58;;;194.15;;
31238;SDS011;17871;31.584;74.450;2024-01-30T01:33:33;426.70;;;193.77;;
31238;SDS011;17871;31.584;74.450;2024-01-30T01:36:03;419.90;;;193.77;;
31238;SDS011;17871;31.584;74.450;2024-01-30T01:38:32;401.60;;;174.52;;
31238;SDS011;17871;31.584;74.450;2024-01-30T01:41:02;340.48;;;153.38;;
31238;SDS011;17871;31.584;74.450;2024-01-30T01:43:31;331.50;;;145.65;;
31238;SDS011;17871;31.584;74.450;2024-01-30T01:46:01;306.48;;;133.82;;
31238;SDS011;17871;31.584;74.450;2024-01-30T01:48:30;317.55;;;138.13;;
31238;SDS011;17871;31.584;74.450;2024-01-30T01:51:00;281.55;;;130.02;;
31238;SDS011;17871;31.584;74.450;2024-01-30T01:53:29;272.48;;;125.03;;
31238;SDS011;17871;31.584;74.450;2024-01-30T01:55:58;297.92;;;130.70;;
31238;SDS011;17871;31.584;74.450;2024-01-30T01:58:28;295.58;;;128.95;;
31238;SDS011;17871;31.584;74.450;2024-01-30T02:00:58;297.00;;;127.70;;
31238;SDS011;17871;31.584;74.450;2024-01-30T02:03:28;282.98;;;126.05;;
31238;SDS011;17871;31.584;74.450;2024-01-30T02:05:57;284.73;;;128.27;;
31238;SDS011;17871;31.584;74.450;2024-01-30T02:08:27;295.50;;;129.60;;
31238;SDS011;17871;31.584;74.450;2024-01-30T02:10:57;286.65;;;125.63;;
31238;SDS011;17871;31.584;74.450;2024-01-30T02:13:26;285.25;;;126.25;;
31238;SDS011;17871;31.584;74.450;2024-01-30T02:15:55;271.17;;;122.10;;
31238;SDS011;17871;31.584;74.450;2024-01-30T02:18:24;299.55;;;126.80;;
31238;SDS011;17871;31.584;74.450;2024-01-30T02:20:55;289.85;;;129.90;;
31238;SDS011;17871;31.584;74.450;2024-01-30T02:23:25;306.58;;;132.88;;
31238;SDS011;17871;31.584;74.450;2024-01-30T02:25:54;308.13;;;134.15;;
31238;SDS011;17871;31.584;74.450;2024-01-30T02:28:23;318.13;;;137.90;;
31238;SDS011;17871;31.584;74.450;2024-01-30T02:30:53;323.90;;;140.85;;
31238;SDS011;17871;31.584;74.450;2024-01-30T02:33:22;326.33;;;139.90;;
31238;SDS011;17871;31.584;74.450;2024-01-30T02:35:51;344.38;;;147.07;;
31238;SDS011;17871;31.584;74.450;2024-01-30T02:38:21;333.10;;;146.60;;
31238;SDS011;17871;31.584;74.450;2024-01-30T02:40:50;324.85;;;141.25;;
31238;SDS011;17871;31.584;74.450;2024-01-30T02:43:19;324.40;;;149.80;;
31238;SDS011;17871;31.584;74.450;2024-01-30T02:45:48;329.23;;;146.18;;
31238;SDS011;17871;31.584;74.450;2024-01-30T02:48:18;399.23;;;146.45;;
31238;SDS011;17871;31.584;74.450;2024-01-30T02:50:47;321.05;;;139.77;;
31238;SDS011;17871;31.584;74.450;2024-01-30T02:53:16;334.35;;;141.85;;
31238;SDS011;17871;31.584;74.450;2024-01-30T02:55:45;329.88;;;133.77;;
31238;SDS011;17871;31.584;74.450;2024-01-30T02:58:15;307.83;;;137.60;;
31238;SDS011;17871;31.584;74.450;2024-01-30T03:00:44;286.80;;;134.60;;
31238;SDS011;17871;31.584;74.450;2024-01-30T03:03:14;278.17;;;129.23;;
31238;SDS011;17871;31.584;74.450;2024-01-30T03:05:43;262.60;;;122.47;;
31238;SDS011;17871;31.584;74.450;2024-01-30T03:08:12;278.17;;;124.28;;
31238;SDS011;17871;31.584;74.450;2024-01-30T03:10:42;297.05;;;127.00;;
31238;SDS011;17871;31.584;74.450;2024-01-30T03:13:11;300.55;;;131.10;;
31238;SDS011;17871;31.584;74.450;2024-01-30T03:15:40;315.50;;;135.63;;
31238;SDS011;17871;31.584;74.450;2024-01-30T03:18:09;301.80;;;134.63;;
31238;SDS011;17871;31.584;74.450;2024-01-30T03:20:39;292.67;;;135.73;;
31238;SDS011;17871;31.584;74.450;2024-01-30T03:23:08;300.60;;;138.90;;
31238;SDS011;17871;31.584;74.450;2024-01-30T03:25:37;300.85;;;138.60;;
31238;SDS011;17871;31.584;74.450;2024-01-30T03:28:06;308.63;;;146.93;;
31238;SDS011;17871;31.584;74.450;2024-01-30T03:30:36;317.98;;;147.13;;
31238;SDS011;17871;31.584;74.450;2024-01-30T03:33:05;337.92;;;150.00;;
31238;SDS011;17871;31.584;74.450;2024-01-30T03:35:34;338.35;;;158.32;;
31238;SDS011;17871;31.584;74.450;2024-01-30T03:38:04;343.55;;;164.15;;
31238;SDS011;17871;31.584;74.450;2024-01-30T03:40:33;364.67;;;170.90;;
31238;SDS011;17871;31.584;74.450;2024-01-30T03:43:02;352.83;;;167.32;;
31238;SDS011;17871;31.584;74.450;2024-01-30T03:45:32;378.90;;;167.35;;
31238;SDS011;17871;31.584;74.450;2024-01-30T03:48:01;364.63;;;178.50;;
31238;SDS011;17871;31.584;74.450;2024-01-30T03:50:30;532.85;;;202.70;;
31238;SDS011;17871;31.584;74.450;2024-01-30T03:53:00;363.35;;;165.45;;
31238;SDS011;17871;31.584;74.450;2024-01-30T03:55:29;270.80;;;125.47;;
31238;SDS011;17871;31.584;74.450;2024-01-30T03:57:58;227.02;;;107.07;;
31238;SDS011;17871;31.584;74.450;2024-01-30T04:00:28;185.88;;;87.93;;
31238;SDS011;17871;31.584;74.450;2024-01-30T04:02:57;203.27;;;91.30;;
31238;SDS011;17871;31.584;74.450;2024-01-30T04:05:26;200.63;;;84.97;;
31238;SDS011;17871;31.584;74.450;2024-01-30T04:07:55;177.23;;;84.75;;
31238;SDS011;17871;31.584;74.450;2024-01-30T04:10:25;195.18;;;88.05;;
31238;SDS011;17871;31.584;74.450;2024-01-30T04:12:54;175.40;;;81.25;;
31238;SDS011;17871;31.584;74.450;2024-01-30T04:15:24;164.32;;;75.05;;
31238;SDS011;17871;31.584;74.450;2024-01-30T04:17:53;167.90;;;77.25;;
31238;SDS011;17871;31.584;74.450;2024-01-30T04:20:22;155.15;;;68.68;;
31238;SDS011;17871;31.584;74.450;2024-01-30T04:22:51;143.52;;;68.47;;
31238;SDS011;17871;31.584;74.450;2024-01-30T04:25:21;142.35;;;65.20;;
31238;SDS011;17871;31.584;74.450;2024-01-30T04:27:50;140.40;;;63.42;;
31238;SDS011;17871;31.584;74.450;2024-01-30T04:30:19;124.72;;;59.55;;
31238;SDS011;17871;31.584;74.450;2024-01-30T04:32:48;119.13;;;57.40;;
31238;SDS011;17871;31.584;74.450;2024-01-30T04:35:18;146.50;;;61.55;;
31238;SDS011;17871;31.584;74.450;2024-01-30T04:37:49;103.68;;;53.67;;
31238;SDS011;17871;31.584;74.450;2024-01-30T04:40:19;99.97;;;49.47;;
31238;SDS011;17871;31.584;74.450;2024-01-30T04:42:48;110.47;;;52.58;;
31238;SDS011;17871;31.584;74.450;2024-01-30T04:45:23;105.75;;;51.65;;
31238;SDS011;17871;31.584;74.450;2024-01-30T04:47:52;106.28;;;52.60;;
31238;SDS011;17871;31.584;74.450;2024-01-30T04:50:21;110.43;;;51.97;;
31238;SDS011;17871;31.584;74.450;2024-01-30T04:52:50;108.05;;;52.65;;
31238;SDS011;17871;31.584;74.450;2024-01-30T04:55:19;110.80;;;50.53;;
31238;SDS011;17871;31.584;74.450;2024-01-30T04:57:50;106.63;;;50.28;;
31238;SDS011;17871;31.584;74.450;2024-01-30T05:00:19;103.97;;;52.88;;
31238;SDS011;17871;31.584;74.450;2024-01-30T05:02:48;104.53;;;52.50;;
31238;SDS011;17871;31.584;74.450;2024-01-30T05:05:18;103.65;;;52.33;;
31238;SDS011;17871;31.584;74.450;2024-01-30T05:07:47;100.15;;;51.70;;
31238;SDS011;17871;31.584;74.450;2024-01-30T05:10:16;104.25;;;54.47;;
31238;SDS011;17871;31.584;74.450;2024-01-30T05:12:46;123.15;;;55.25;;
31238;SDS011;17871;31.584;74.450;2024-01-30T05:15:15;116.45;;;55.15;;
31238;SDS011;17871;31.584;74.450;2024-01-30T05:17:45;106.03;;;53.42;;
31238;SDS011;17871;31.584;74.450;2024-01-30T05:20:14;105.85;;;53.28;;
31238;SDS011;17871;31.584;74.450;2024-01-30T05:22:43;111.68;;;53.58;;
31238;SDS011;17871;31.584;74.450;2024-01-30T05:25:13;111.95;;;53.47;;
31238;SDS011;17871;31.584;74.450;2024-01-30T05:27:43;113.65;;;54.67;;
31238;SDS011;17871;31.584;74.450;2024-01-30T05:30:12;126.82;;;52.95;;
31238;SDS011;17871;31.584;74.450;2024-01-30T05:32:42;101.93;;;52.67;;
31238;SDS011;17871;31.584;74.450;2024-01-30T05:35:12;101.43;;;50.10;;
31238;SDS011;17871;31.584;74.450;2024-01-30T05:37:41;111.47;;;49.70;;
31238;SDS011;17871;31.584;74.450;2024-01-30T05:40:11;106.28;;;52.08;;
31238;SDS011;17871;31.584;74.450;2024-01-30T05:42:40;90.18;;;45.67;;
31238;SDS011;17871;31.584;74.450;2024-01-30T05:45:10;107.00;;;49.78;;
31238;SDS011;17871;31.584;74.450;2024-01-30T05:47:39;115.07;;;50.38;;
31238;SDS011;17871;31.584;74.450;2024-01-30T05:50:08;107.05;;;49.75;;
31238;SDS011;17871;31.584;74.450;2024-01-30T05:52:38;97.30;;;49.03;;
31238;SDS011;17871;31.584;74.450;2024-01-30T05:55:07;110.75;;;55.60;;
31238;SDS011;17871;31.584;74.450;2024-01-30T05:57:37;92.93;;;50.05;;
31238;SDS011;17871;31.584;74.450;2024-01-30T06:00:06;88.35;;;45.13;;
31238;SDS011;17871;31.584;74.450;2024-01-30T06:02:37;89.32;;;47.53;;
31238;SDS011;17871;31.584;74.450;2024-01-30T06:05:06;87.03;;;47.00;;
31238;SDS011;17871;31.584;74.450;2024-01-30T06:07:36;88.65;;;46.30;;
31238;SDS011;17871;31.584;74.450;2024-01-30T06:10:05;89.32;;;44.03;;
31238;SDS011;17871;31.584;74.450;2024-01-30T06:12:36;92.78;;;46.65;;
31238;SDS011;17871;31.584;74.450;2024-01-30T06:15:05;92.72;;;46.70;;
31238;SDS011;17871;31.584;74.450;2024-01-30T06:17:35;93.07;;;45.97;;
31238;SDS011;17871;31.584;74.450;2024-01-30T06:20:04;88.18;;;45.72;;
31238;SDS011;17871;31.584;74.450;2024-01-30T06:22:34;93.22;;;46.47;;
31238;SDS011;17871;31.584;74.450;2024-01-30T06:25:03;98.18;;;46.30;;
31238;SDS011;17871;31.584;74.450;2024-01-30T06:27:33;87.63;;;44.67;;
31238;SDS011;17871;31.584;74.450;2024-01-30T06:30:02;94.53;;;45.47;;
31238;SDS011;17871;31.584;74.450;2024-01-30T06:32:31;94.22;;;42.75;;
31238;SDS011;17871;31.584;74.450;2024-01-30T06:35:03;94.30;;;41.90;;
31238;SDS011;17871;31.584;74.450;2024-01-30T06:37:32;85.03;;;40.70;;
31238;SDS011;17871;31.584;74.450;2024-01-30T06:40:02;83.80;;;43.47;;
31238;SDS011;17871;31.584;74.450;2024-01-30T06:42:33;79.68;;;39.30;;
31238;SDS011;17871;31.584;74.450;2024-01-30T06:45:02;72.38;;;38.00;;
31238;SDS011;17871;31.584;74.450;2024-01-30T06:47:31;77.05;;;37.03;;
31238;SDS011;17871;31.584;74.450;2024-01-30T06:50:01;65.70;;;34.92;;
31238;SDS011;17871;31.584;74.450;2024-01-30T06:52:37;85.03;;;39.00;;
31238;SDS011;17871;31.584;74.450;2024-01-30T06:55:09;77.82;;;39.45;;
31238;SDS011;17871;31.584;74.450;2024-01-30T06:57:39;78.28;;;38.05;;
31238;SDS011;17871;31.584;74.450;2024-01-30T07:00:08;79.13;;;41.47;;
31238;SDS011;17871;31.584;74.450;2024-01-30T07:02:37;92.85;;;40.00;;
31238;SDS011;17871;31.584;74.450;2024-01-30T07:05:07;81.55;;;42.30;;
31238;SDS011;17871;31.584;74.450;2024-01-30T07:07:37;79.43;;;37.95;;
31238;SDS011;17871;31.584;74.450;2024-01-30T07:10:08;92.90;;;39.13;;
31238;SDS011;17871;31.584;74.450;2024-01-30T07:12:46;62.78;;;36.72;;
31238;SDS011;17871;31.584;74.450;2024-01-30T07:15:16;81.35;;;38.50;;
31238;SDS011;17871;31.584;74.450;2024-01-30T07:17:48;75.63;;;36.92;;
31238;SDS011;17871;31.584;74.450;2024-01-30T07:20:17;71.43;;;36.92;;
31238;SDS011;17871;31.584;74.450;2024-01-30T07:22:49;72.55;;;34.15;;
31238;SDS011;17871;31.584;74.450;2024-01-30T07:25:19;59.85;;;33.42;;
31238;SDS011;17871;31.584;74.450;2024-01-30T07:27:48;58.78;;;33.50;;
31238;SDS011;17871;31.584;74.450;2024-01-30T07:30:17;79.28;;;35.20;;
31238;SDS011;17871;31.584;74.450;2024-01-30T07:32:47;61.90;;;32.60;;
31238;SDS011;17871;31.584;74.450;2024-01-30T07:35:17;66.30;;;34.70;;
31238;SDS011;17871;31.584;74.450;2024-01-30T07:37:47;59.67;;;32.97;;
31238;SDS011;17871;31.584;74.450;2024-01-30T07:40:17;58.38;;;34.42;;
31238;SDS011;17871;31.584;74.450;2024-01-30T07:42:47;69.32;;;33.33;;
31238;SDS011;17871;31.584;74.450;2024-01-30T07:45:17;69.70;;;32.17;;
31238;SDS011;17871;31.584;74.450;2024-01-30T07:47:51;69.68;;;31.85;;
31238;SDS011;17871;31.584;74.450;2024-01-30T07:50:20;63.63;;;31.02;;
31238;SDS011;17871;31.584;74.450;2024-01-30T07:52:50;64.75;;;33.05;;
31238;SDS011;17871;31.584;74.450;2024-01-30T07:55:23;94.32;;;33.63;;
31238;SDS011;17871;31.584;74.450;2024-01-30T07:58:00;65.88;;;32.45;;
31238;SDS011;17871;31.584;74.450;2024-01-30T08:00:29;71.88;;;32.30;;
31238;SDS011;17871;31.584;74.450;2024-01-30T08:02:59;66.15;;;30.52;;
31238;SDS011;17871;31.584;74.450;2024-01-30T08:05:28;57.00;;;31.00;;
31238;SDS011;17871;31.584;74.450;2024-01-30T08:07:58;50.90;;;29.80;;
31238;SDS011;17871;31.584;74.450;2024-01-30T08:10:27;56.63;;;32.35;;
31238;SDS011;17871;31.584;74.450;2024-01-30T08:12:56;61.38;;;31.17;;
31238;SDS011;17871;31.584;74.450;2024-01-30T08:15:26;58.85;;;31.85;;
31238;SDS011;17871;31.584;74.450;2024-01-30T08:17:55;54.33;;;31.25;;
31238;SDS011;17871;31.584;74.450;2024-01-30T08:20:26;60.10;;;31.38;;
31238;SDS011;17871;31.584;74.450;2024-01-30T08:22:56;62.63;;;31.55;;
31238;SDS011;17871;31.584;74.450;2024-01-30T08:25:25;60.50;;;31.55;;
31238;SDS011;17871;31.584;74.450;2024-01-30T08:27:54;67.13;;;33.53;;
31238;SDS011;17871;31.584;74.450;2024-01-30T08:30:25;67.72;;;32.17;;
31238;SDS011;17871;31.584;74.450;2024-01-30T08:32:54;62.25;;;29.75;;
31238;SDS011;17871;31.584;74.450;2024-01-30T08:35:26;54.28;;;28.98;;
31238;SDS011;17871;31.584;74.450;2024-01-30T08:37:55;62.53;;;30.92;;
31238;SDS011;17871;31.584;74.450;2024-01-30T08:40:25;57.78;;;30.95;;
31238;SDS011;17871;31.584;74.450;2024-01-30T08:42:54;61.15;;;29.60;;
31238;SDS011;17871;31.584;74.450;2024-01-30T08:45:23;54.67;;;29.42;;
31238;SDS011;17871;31.584;74.450;2024-01-30T08:47:53;55.92;;;27.60;;
31238;SDS011;17871;31.584;74.450;2024-01-30T08:50:22;46.03;;;26.73;;
31238;SDS011;17871;31.584;74.450;2024-01-30T08:52:52;51.67;;;26.55;;
31238;SDS011;17871;31.584;74.450;2024-01-30T08:55:21;52.28;;;28.67;;
31238;SDS011;17871;31.584;74.450;2024-01-30T08:57:50;56.53;;;26.58;;
31238;SDS011;17871;31.584;74.450;2024-01-30T09:00:20;61.75;;;26.70;;
31238;SDS011;17871;31.584;74.450;2024-01-30T09:02:49;52.55;;;25.73;;
31238;SDS011;17871;31.584;74.450;2024-01-30T09:05:19;48.85;;;25.40;;
31238;SDS011;17871;31.584;74.450;2024-01-30T09:07:48;49.47;;;23.77;;
31238;SDS011;17871;31.584;74.450;2024-01-30T09:10:17;64.50;;;26.10;;
31238;SDS011;17871;31.584;74.450;2024-01-30T09:12:48;58.70;;;26.30;;
31238;SDS011;17871;31.584;74.450;2024-01-30T09:15:18;51.53;;;27.58;;
31238;SDS011;17871;31.584;74.450;2024-01-30T09:17:50;45.22;;;25.92;;
31238;SDS011;17871;31.584;74.450;2024-01-30T09:20:19;51.63;;;27.38;;
31238;SDS011;17871;31.584;74.450;2024-01-30T09:22:51;55.15;;;27.15;;
31238;SDS011;17871;31.584;74.450;2024-01-30T09:25:20;105.30;;;30.73;;
31238;SDS011;17871;31.584;74.450;2024-01-30T09:27:49;68.28;;;29.38;;
31238;SDS011;17871;31.584;74.450;2024-01-30T09:30:18;66.93;;;28.23;;
31238;SDS011;17871;31.584;74.450;2024-01-30T09:32:48;53.75;;;27.50;;
31238;SDS011;17871;31.584;74.450;2024-01-30T09:35:17;54.38;;;25.17;;
31238;SDS011;17871;31.584;74.450;2024-01-30T09:37:47;63.97;;;26.00;;
31238;SDS011;17871;31.584;74.450;2024-01-30T09:40:16;51.25;;;25.58;;
31238;SDS011;17871;31.584;74.450;2024-01-30T09:42:47;52.25;;;28.25;;
31238;SDS011;17871;31.584;74.450;2024-01-30T09:45:19;61.47;;;26.45;;
31238;SDS011;17871;31.584;74.450;2024-01-30T09:47:48;55.45;;;27.67;;
31238;SDS011;17871;31.584;74.450;2024-01-30T09:50:18;69.40;;;27.25;;
31238;SDS011;17871;31.584;74.450;2024-01-30T09:52:48;50.25;;;26.52;;
31238;SDS011;17871;31.584;74.450;2024-01-30T09:55:18;46.67;;;24.98;;
31238;SDS011;17871;31.584;74.450;2024-01-30T09:57:48;56.70;;;24.08;;
31238;SDS011;17871;31.584;74.450;2024-01-30T10:00:17;49.58;;;23.25;;
31238;SDS011;17871;31.584;74.450;2024-01-30T10:02:47;45.10;;;23.58;;
31238;SDS011;17871;31.584;74.450;2024-01-30T10:05:16;49.55;;;25.67;;
31238;SDS011;17871;31.584;74.450;2024-01-30T10:07:53;53.92;;;25.58;;
31238;SDS011;17871;31.584;74.450;2024-01-30T10:10:27;57.70;;;27.40;;
31238;SDS011;17871;31.584;74.450;2024-01-30T10:12:56;50.47;;;24.35;;
31238;SDS011;17871;31.584;74.450;2024-01-30T10:15:28;49.67;;;24.53;;
31238;SDS011;17871;31.584;74.450;2024-01-30T10:17:57;44.58;;;23.92;;
31238;SDS011;17871;31.584;74.450;2024-01-30T10:20:27;48.70;;;25.27;;
31238;SDS011;17871;31.584;74.450;2024-01-30T10:22:56;52.08;;;25.98;;
31238;SDS011;17871;31.584;74.450;2024-01-30T10:25:26;51.53;;;26.27;;
31238;SDS011;17871;31.584;74.450;2024-01-30T10:27:55;52.20;;;27.48;;
31238;SDS011;17871;31.584;74.450;2024-01-30T10:30:24;54.70;;;28.77;;
31238;SDS011;17871;31.584;74.450;2024-01-30T10:32:54;50.20;;;28.63;;
31238;SDS011;17871;31.584;74.450;2024-01-30T10:35:23;55.60;;;29.85;;
31238;SDS011;17871;31.584;74.450;2024-01-30T10:37:52;61.30;;;29.77;;
31238;SDS011;17871;31.584;74.450;2024-01-30T10:40:28;61.58;;;30.73;;
31238;SDS011;17871;31.584;74.450;2024-01-30T10:42:58;64.63;;;29.10;;
31238;SDS011;17871;31.584;74.450;2024-01-30T10:45:32;58.47;;;30.20;;
31238;SDS011;17871;31.584;74.450;2024-01-30T10:48:01;58.03;;;30.55;;
31238;SDS011;17871;31.584;74.450;2024-01-30T10:50:32;60.08;;;29.67;;
31238;SDS011;17871;31.584;74.450;2024-01-30T10:53:08;62.38;;;30.17;;
31238;SDS011;17871;31.584;74.450;2024-01-30T10:55:38;57.63;;;28.35;;
31238;SDS011;17871;31.584;74.450;2024-01-30T10:58:08;58.47;;;29.75;;
31238;SDS011;17871;31.584;74.450;2024-01-30T11:00:40;59.20;;;29.43;;
31238;SDS011;17871;31.584;74.450;2024-01-30T11:03:10;59.70;;;30.52;;
31238;SDS011;17871;31.584;74.450;2024-01-30T11:05:40;63.10;;;31.13;;
31238;SDS011;17871;31.584;74.450;2024-01-30T11:08:11;66.00;;;34.10;;
31238;SDS011;17871;31.584;74.450;2024-01-30T11:10:44;77.78;;;38.13;;
31238;SDS011;17871;31.584;74.450;2024-01-30T11:13:14;76.20;;;35.15;;
31238;SDS011;17871;31.584;74.450;2024-01-30T11:15:43;64.38;;;31.45;;
31238;SDS011;17871;31.584;74.450;2024-01-30T11:18:22;67.35;;;31.45;;
31238;SDS011;17871;31.584;74.450;2024-01-30T11:20:51;52.80;;;28.15;;
31238;SDS011;17871;31.584;74.450;2024-01-30T11:23:21;50.92;;;29.63;;
31238;SDS011;17871;31.584;74.450;2024-01-30T11:25:52;58.88;;;30.40;;
31238;SDS011;17871;31.584;74.450;2024-01-30T11:28:21;56.47;;;28.90;;
31238;SDS011;17871;31.584;74.450;2024-01-30T11:30:51;65.47;;;28.92;;
31238;SDS011;17871;31.584;74.450;2024-01-30T11:33:32;57.45;;;29.40;;
31238;SDS011;17871;31.584;74.450;2024-01-30T11:36:02;52.30;;;30.33;;
31238;SDS011;17871;31.584;74.450;2024-01-30T11:38:32;60.20;;;30.95;;
31238;SDS011;17871;31.584;74.450;2024-01-30T11:41:01;67.40;;;31.23;;
31238;SDS011;17871;31.584;74.450;2024-01-30T11:43:31;64.40;;;29.70;;
31238;SDS011;17871;31.584;74.450;2024-01-30T11:46:02;75.53;;;31.42;;
31238;SDS011;17871;31.584;74.450;2024-01-30T11:48:31;68.88;;;34.35;;
31238;SDS011;17871;31.584;74.450;2024-01-30T11:51:00;72.30;;;34.70;;
31238;SDS011;17871;31.584;74.450;2024-01-30T11:53:30;80.00;;;39.60;;
31238;SDS011;17871;31.584;74.450;2024-01-30T11:55:59;86.38;;;44.65;;
31238;SDS011;17871;31.584;74.450;2024-01-30T11:58:28;89.75;;;43.53;;
31238;SDS011;17871;31.584;74.450;2024-01-30T12:00:58;82.22;;;36.20;;
31238;SDS011;17871;31.584;74.450;2024-01-30T12:03:28;75.60;;;39.22;;
31238;SDS011;17871;31.584;74.450;2024-01-30T12:05:58;79.07;;;40.53;;
31238;SDS011;17871;31.584;74.450;2024-01-30T12:08:28;74.57;;;36.95;;
31238;SDS011;17871;31.584;74.450;2024-01-30T12:11:00;64.00;;;34.85;;
31238;SDS011;17871;31.584;74.450;2024-01-30T12:13:30;69.28;;;36.20;;
31238;SDS011;17871;31.584;74.450;2024-01-30T12:16:00;70.30;;;35.92;;
31238;SDS011;17871;31.584;74.450;2024-01-30T12:18:30;68.88;;;36.08;;
31238;SDS011;17871;31.584;74.450;2024-01-30T12:20:59;74.53;;;38.25;;
31238;SDS011;17871;31.584;74.450;2024-01-30T12:23:29;75.85;;;40.80;;
31238;SDS011;17871;31.584;74.450;2024-01-30T12:25:58;89.80;;;43.13;;
31238;SDS011;17871;31.584;74.450;2024-01-30T12:28:28;82.93;;;43.35;;
31238;SDS011;17871;31.584;74.450;2024-01-30T12:31:00;88.20;;;43.92;;
31238;SDS011;17871;31.584;74.450;2024-01-30T12:33:31;114.93;;;46.13;;
31238;SDS011;17871;31.584;74.450;2024-01-30T12:36:03;112.95;;;52.03;;
31238;SDS011;17871;31.584;74.450;2024-01-30T12:38:33;114.55;;;51.10;;
31238;SDS011;17871;31.584;74.450;2024-01-30T12:41:02;104.78;;;48.28;;
31238;SDS011;17871;31.584;74.450;2024-01-30T12:43:32;105.43;;;49.95;;
31238;SDS011;17871;31.584;74.450;2024-01-30T12:46:05;109.88;;;53.25;;
31238;SDS011;17871;31.584;74.450;2024-01-30T12:48:35;107.38;;;53.83;;
31238;SDS011;17871;31.584;74.450;2024-01-30T12:51:04;121.82;;;58.90;;
31238;SDS011;17871;31.584;74.450;2024-01-30T12:53:34;116.43;;;55.38;;
31238;SDS011;17871;31.584;74.450;2024-01-30T12:56:03;107.40;;;52.13;;
31238;SDS011;17871;31.584;74.450;2024-01-30T12:58:35;109.82;;;52.63;;
31238;SDS011;17871;31.584;74.450;2024-01-30T13:01:04;103.60;;;50.13;;
31238;SDS011;17871;31.584;74.450;2024-01-30T13:03:34;115.55;;;53.15;;
31238;SDS011;17871;31.584;74.450;2024-01-30T13:06:04;101.55;;;50.38;;
31238;SDS011;17871;31.584;74.450;2024-01-30T13:08:34;107.18;;;52.63;;
31238;SDS011;17871;31.584;74.450;2024-01-30T13:11:03;105.55;;;50.75;;
31238;SDS011;17871;31.584;74.450;2024-01-30T13:13:35;116.40;;;53.67;;
31238;SDS011;17871;31.584;74.450;2024-01-30T13:16:05;100.35;;;49.45;;
31238;SDS011;17871;31.584;74.450;2024-01-30T13:18:34;102.47;;;55.72;;
31238;SDS011;17871;31.584;74.450;2024-01-30T13:21:04;122.68;;;59.25;;
31238;SDS011;17871;31.584;74.450;2024-01-30T13:23:33;116.22;;;60.80;;
31238;SDS011;17871;31.584;74.450;2024-01-30T13:26:03;173.60;;;71.13;;
31238;SDS011;17871;31.584;74.450;2024-01-30T13:28:32;171.05;;;76.72;;
31238;SDS011;17871;31.584;74.450;2024-01-30T13:31:02;154.43;;;71.07;;
31238;SDS011;17871;31.584;74.450;2024-01-30T13:33:31;147.55;;;67.80;;
31238;SDS011;17871;31.584;74.450;2024-01-30T13:36:01;144.98;;;67.85;;
31238;SDS011;17871;31.584;74.450;2024-01-30T13:38:30;148.32;;;66.88;;
31238;SDS011;17871;31.584;74.450;2024-01-30T13:40:59;107.47;;;56.03;;
31238;SDS011;17871;31.584;74.450;2024-01-30T13:43:29;118.43;;;60.50;;
31238;SDS011;17871;31.584;74.450;2024-01-30T13:45:58;120.82;;;59.65;;
31238;SDS011;17871;31.584;74.450;2024-01-30T13:48:28;155.15;;;65.50;;
31238;SDS011;17871;31.584;74.450;2024-01-30T13:50:58;140.77;;;65.15;;
31238;SDS011;17871;31.584;74.450;2024-01-30T13:53:28;134.35;;;63.40;;
31238;SDS011;17871;31.584;74.450;2024-01-30T13:55:57;132.10;;;67.10;;
31238;SDS011;17871;31.584;74.450;2024-01-30T13:58:26;155.27;;;68.75;;
31238;SDS011;17871;31.584;74.450;2024-01-30T14:00:56;143.63;;;68.28;;
31238;SDS011;17871;31.584;74.450;2024-01-30T14:03:25;133.80;;;63.38;;
31238;SDS011;17871;31.584;74.450;2024-01-30T14:05:54;140.45;;;62.80;;
31238;SDS011;17871;31.584;74.450;2024-01-30T14:08:24;154.05;;;69.75;;
31238;SDS011;17871;31.584;74.450;2024-01-30T14:13:25;125.78;;;57.42;;
31238;SDS011;17871;31.584;74.450;2024-01-30T14:15:55;119.07;;;54.78;;